sensor_id;sensor_type;location;lat;lon;timestamp;temperature;humidity
16999;DHT22;10211;49.476;11.010;2023-01-24T00:01:50;2.90;99.90
16999;DHT22;10211;49.476;11.010;2023-01-24T00:04:20;2.90;99.90
16999;DHT22;10211;49.476;11.010;2023-01-24T00:06:47;2.80;99.90
16999;DHT22;10211;49.476;11.010;2023-01-24T00:09:13;2.80;99.90
16999;DHT22;10211;49.476;11.010;2023-01-24T00:11:40;2.70;99.90
16999;DHT22;10211;49.476;11.010;2023-01-24T00:14:07;2.80;99.90
16999;DHT22;10211;49.476;11.010;2023-01-24T00:16:33;2.80;99.90
16999;DHT22;10211;49.476;11.010;2023-01-24T00:19:00;2.80;99.90
16999;DHT22;10211;49.476;11.010;2023-01-24T00:21:28;2.70;99.90
16999;DHT22;10211;49.476;11.010;2023-01-24T00:23:55;2.70;99.90
16999;DHT22;10211;49.476;11.010;2023-01-24T00:26:23;2.70;99.90
16999;DHT22;10211;49.476;11.010;2023-01-24T00:28:50;2.60;99.90
16999;DHT22;10211;49.476;11.010;2023-01-24T00:31:17;2.60;99.90
16999;DHT22;10211;49.476;11.010;2023-01-24T00:33:44;2.60;99.90
16999;DHT22;10211;49.476;11.010;2023-01-24T00:36:11;2.60;99.90
16999;DHT22;10211;49.476;11.010;2023-01-24T00:38:39;2.60;99.90
16999;DHT22;10211;49.476;11.010;2023-01-24T00:41:06;2.60;99.90
16999;DHT22;10211;49.476;11.010;2023-01-24T00:43:32;2.60;99.90
16999;DHT22;10211;49.476;11.010;2023-01-24T00:45:59;2.60;99.90
16999;DHT22;10211;49.476;11.010;2023-01-24T00:48:26;2.60;99.90
16999;DHT22;10211;49.476;11.010;2023-01-24T00:50:53;2.60;99.90
16999;DHT22;10211;49.476;11.010;2023-01-24T00:53:19;2.60;99.90
16999;DHT22;10211;49.476;11.010;2023-01-24T00:55:48;2.50;99.90
16999;DHT22;10211;49.476;11.010;2023-01-24T00:58:16;2.60;99.90
16999;DHT22;10211;49.476;11.010;2023-01-24T01:00:42;2.50;99.90
16999;DHT22;10211;49.476;11.010;2023-01-24T01:03:11;2.60;99.90
16999;DHT22;10211;49.476;11.010;2023-01-24T01:05:39;2.60;99.90
16999;DHT22;10211;49.476;11.010;2023-01-24T01:08:06;2.60;99.90
16999;DHT22;10211;49.476;11.010;2023-01-24T01:10:33;2.50;99.90
16999;DHT22;10211;49.476;11.010;2023-01-24T01:13:01;2.60;99.90
16999;DHT22;10211;49.476;11.010;2023-01-24T01:15:28;2.60;99.90
16999;DHT22;10211;49.476;11.010;2023-01-24T01:17:56;2.70;99.90
16999;DHT22;10211;49.476;11.010;2023-01-24T01:20:23;2.50;99.90
16999;DHT22;10211;49.476;11.010;2023-01-24T01:22:52;2.50;99.90
16999;DHT22;10211;49.476;11.010;2023-01-24T01:25:18;2.60;99.90
16999;DHT22;10211;49.476;11.010;2023-01-24T01:27:45;2.50;99.90
16999;DHT22;10211;49.476;11.010;2023-01-24T01:30:13;2.50;99.90
16999;DHT22;10211;49.476;11.010;2023-01-24T01:32:40;2.60;99.90
16999;DHT22;10211;49.476;11.010;2023-01-24T01:35:07;2.50;99.90
16999;DHT22;10211;49.476;11.010;2023-01-24T01:37:34;2.60;99.90
16999;DHT22;10211;49.476;11.010;2023-01-24T01:40:01;2.60;99.90
16999;DHT22;10211;49.476;11.010;2023-01-24T01:42:39;2.60;99.90
16999;DHT22;10211;49.476;11.010;2023-01-24T01:45:34;2.60;99.90
16999;DHT22;10211;49.476;11.010;2023-01-24T01:48:08;2.60;99.90
16999;DHT22;10211;49.476;11.010;2023-01-24T01:50:40;2.50;99.90
16999;DHT22;10211;49.476;11.010;2023-01-24T01:53:10;2.60;99.90
16999;DHT22;10211;49.476;11.010;2023-01-24T01:55:40;2.60;99.90
16999;DHT22;10211;49.476;11.010;2023-01-24T01:58:08;2.60;99.90
16999;DHT22;10211;49.476;11.010;2023-01-24T02:00:36;2.60;99.90
16999;DHT22;10211;49.476;11.010;2023-01-24T02:03:09;2.60;99.90
16999;DHT22;10211;49.476;11.010;2023-01-24T02:05:55;2.60;99.90
16999;DHT22;10211;49.476;11.010;2023-01-24T02:08:23;2.60;99.90
16999;DHT22;10211;49.476;11.010;2023-01-24T02:10:50;2.60;99.90
16999;DHT22;10211;49.476;11.010;2023-01-24T02:13:35;2.60;99.90
16999;DHT22;10211;49.476;11.010;2023-01-24T02:16:06;2.70;99.90
16999;DHT22;10211;49.476;11.010;2023-01-24T02:18:35;2.80;99.90
16999;DHT22;10211;49.476;11.010;2023-01-24T02:21:02;2.70;99.90
16999;DHT22;10211;49.476;11.010;2023-01-24T02:23:35;2.70;99.90
16999;DHT22;10211;49.476;11.010;2023-01-24T02:26:09;2.70;99.90
16999;DHT22;10211;49.476;11.010;2023-01-24T02:28:37;2.80;99.90
16999;DHT22;10211;49.476;11.010;2023-01-24T02:31:05;2.60;99.90
16999;DHT22;10211;49.476;11.010;2023-01-24T02:33:33;2.70;99.90
16999;DHT22;10211;49.476;11.010;2023-01-24T02:36:14;2.70;99.90
16999;DHT22;10211;49.476;11.010;2023-01-24T02:38:46;2.60;99.90
16999;DHT22;10211;49.476;11.010;2023-01-24T02:41:18;2.60;99.90
16999;DHT22;10211;49.476;11.010;2023-01-24T02:43:48;2.70;99.90
16999;DHT22;10211;49.476;11.010;2023-01-24T02:46:16;2.90;99.90
16999;DHT22;10211;49.476;11.010;2023-01-24T02:48:43;2.60;99.90
16999;DHT22;10211;49.476;11.010;2023-01-24T02:51:09;2.60;99.90
16999;DHT22;10211;49.476;11.010;2023-01-24T02:53:54;2.60;99.90
16999;DHT22;10211;49.476;11.010;2023-01-24T02:56:22;2.60;99.90
16999;DHT22;10211;49.476;11.010;2023-01-24T02:59:06;2.50;99.90
16999;DHT22;10211;49.476;11.010;2023-01-24T03:01:33;2.60;99.90
16999;DHT22;10211;49.476;11.010;2023-01-24T03:03:59;2.50;99.90
16999;DHT22;10211;49.476;11.010;2023-01-24T03:06:26;2.50;99.90
16999;DHT22;10211;49.476;11.010;2023-01-24T03:08:53;2.50;99.90
16999;DHT22;10211;49.476;11.010;2023-01-24T03:11:20;2.40;99.90
16999;DHT22;10211;49.476;11.010;2023-01-24T03:13:48;2.50;99.90
16999;DHT22;10211;49.476;11.010;2023-01-24T03:16:32;2.50;99.90
16999;DHT22;10211;49.476;11.010;2023-01-24T03:19:16;2.40;99.90
16999;DHT22;10211;49.476;11.010;2023-01-24T03:22:00;2.30;99.90
16999;DHT22;10211;49.476;11.010;2023-01-24T03:24:44;2.30;99.90
16999;DHT22;10211;49.476;11.010;2023-01-24T03:27:28;2.30;99.90
16999;DHT22;10211;49.476;11.010;2023-01-24T03:30:14;2.40;99.90
16999;DHT22;10211;49.476;11.010;2023-01-24T03:32:58;2.40;99.90
16999;DHT22;10211;49.476;11.010;2023-01-24T03:35:43;2.40;99.90
16999;DHT22;10211;49.476;11.010;2023-01-24T03:38:19;2.30;99.90
16999;DHT22;10211;49.476;11.010;2023-01-24T03:41:04;2.40;99.90
16999;DHT22;10211;49.476;11.010;2023-01-24T03:43:30;2.40;99.90
16999;DHT22;10211;49.476;11.010;2023-01-24T03:45:59;2.40;99.90
16999;DHT22;10211;49.476;11.010;2023-01-24T03:48:26;2.40;99.90
16999;DHT22;10211;49.476;11.010;2023-01-24T03:50:59;2.40;99.90
16999;DHT22;10211;49.476;11.010;2023-01-24T03:53:44;2.50;99.90
16999;DHT22;10211;49.476;11.010;2023-01-24T03:56:10;2.40;99.90
16999;DHT22;10211;49.476;11.010;2023-01-24T03:58:37;2.40;99.90
16999;DHT22;10211;49.476;11.010;2023-01-24T04:01:05;2.40;99.90
16999;DHT22;10211;49.476;11.010;2023-01-24T04:03:32;2.40;99.90
16999;DHT22;10211;49.476;11.010;2023-01-24T04:05:59;2.40;99.90
16999;DHT22;10211;49.476;11.010;2023-01-24T04:08:25;2.40;99.90
16999;DHT22;10211;49.476;11.010;2023-01-24T04:10:54;2.30;99.90
16999;DHT22;10211;49.476;11.010;2023-01-24T04:13:21;2.40;99.90
16999;DHT22;10211;49.476;11.010;2023-01-24T04:15:48;2.40;99.90
16999;DHT22;10211;49.476;11.010;2023-01-24T04:18:16;2.40;99.90
16999;DHT22;10211;49.476;11.010;2023-01-24T04:20:42;2.30;99.90
16999;DHT22;10211;49.476;11.010;2023-01-24T04:23:10;2.30;99.90
16999;DHT22;10211;49.476;11.010;2023-01-24T04:25:37;2.30;99.90
16999;DHT22;10211;49.476;11.010;2023-01-24T04:28:04;2.40;99.90
16999;DHT22;10211;49.476;11.010;2023-01-24T04:30:31;2.40;99.90
16999;DHT22;10211;49.476;11.010;2023-01-24T04:32:58;2.40;99.90
16999;DHT22;10211;49.476;11.010;2023-01-24T04:35:27;2.40;99.90
16999;DHT22;10211;49.476;11.010;2023-01-24T04:37:57;2.30;99.90
16999;DHT22;10211;49.476;11.010;2023-01-24T04:40:24;2.30;99.90
16999;DHT22;10211;49.476;11.010;2023-01-24T04:42:51;2.30;99.90
16999;DHT22;10211;49.476;11.010;2023-01-24T04:45:17;2.40;99.90
16999;DHT22;10211;49.476;11.010;2023-01-24T04:47:44;2.30;99.90
16999;DHT22;10211;49.476;11.010;2023-01-24T04:50:11;2.30;99.90
16999;DHT22;10211;49.476;11.010;2023-01-24T04:52:39;2.30;99.90
16999;DHT22;10211;49.476;11.010;2023-01-24T04:55:06;2.30;99.90
16999;DHT22;10211;49.476;11.010;2023-01-24T04:57:33;2.30;99.90
16999;DHT22;10211;49.476;11.010;2023-01-24T05:00:00;2.30;99.90
16999;DHT22;10211;49.476;11.010;2023-01-24T05:02:26;2.40;99.90
16999;DHT22;10211;49.476;11.010;2023-01-24T05:04:53;2.40;99.90
16999;DHT22;10211;49.476;11.010;2023-01-24T05:07:20;2.30;99.90
16999;DHT22;10211;49.476;11.010;2023-01-24T05:09:48;2.40;99.90
16999;DHT22;10211;49.476;11.010;2023-01-24T05:12:15;2.40;99.90
16999;DHT22;10211;49.476;11.010;2023-01-24T05:14:41;2.30;99.90
16999;DHT22;10211;49.476;11.010;2023-01-24T05:17:08;2.40;99.90
16999;DHT22;10211;49.476;11.010;2023-01-24T05:19:35;2.40;99.90
16999;DHT22;10211;49.476;11.010;2023-01-24T05:22:01;2.40;99.90
16999;DHT22;10211;49.476;11.010;2023-01-24T05:24:28;2.50;99.90
16999;DHT22;10211;49.476;11.010;2023-01-24T05:26:56;2.50;99.90
16999;DHT22;10211;49.476;11.010;2023-01-24T05:29:23;2.40;99.90
16999;DHT22;10211;49.476;11.010;2023-01-24T05:31:50;2.50;99.90
16999;DHT22;10211;49.476;11.010;2023-01-24T05:34:16;2.40;99.90
16999;DHT22;10211;49.476;11.010;2023-01-24T05:36:43;2.40;99.90
16999;DHT22;10211;49.476;11.010;2023-01-24T05:39:10;2.40;99.90
16999;DHT22;10211;49.476;11.010;2023-01-24T05:41:36;2.40;99.90
16999;DHT22;10211;49.476;11.010;2023-01-24T05:44:05;2.50;99.90
16999;DHT22;10211;49.476;11.010;2023-01-24T05:46:31;2.50;99.90
16999;DHT22;10211;49.476;11.010;2023-01-24T05:48:58;2.50;99.90
16999;DHT22;10211;49.476;11.010;2023-01-24T05:51:25;2.50;99.90
16999;DHT22;10211;49.476;11.010;2023-01-24T05:53:51;2.50;99.90
16999;DHT22;10211;49.476;11.010;2023-01-24T05:56:19;2.60;99.90
16999;DHT22;10211;49.476;11.010;2023-01-24T05:58:47;2.60;99.90
16999;DHT22;10211;49.476;11.010;2023-01-24T06:01:17;2.60;99.90
16999;DHT22;10211;49.476;11.010;2023-01-24T06:03:44;2.60;99.90
16999;DHT22;10211;49.476;11.010;2023-01-24T06:06:13;2.50;99.90
16999;DHT22;10211;49.476;11.010;2023-01-24T06:08:40;2.50;99.90
16999;DHT22;10211;49.476;11.010;2023-01-24T06:11:11;2.50;99.90
16999;DHT22;10211;49.476;11.010;2023-01-24T06:13:39;2.60;99.90
16999;DHT22;10211;49.476;11.010;2023-01-24T06:16:09;2.60;99.90
16999;DHT22;10211;49.476;11.010;2023-01-24T06:18:38;2.50;99.90
16999;DHT22;10211;49.476;11.010;2023-01-24T06:21:07;2.50;99.90
16999;DHT22;10211;49.476;11.010;2023-01-24T06:23:34;2.50;99.90
16999;DHT22;10211;49.476;11.010;2023-01-24T06:26:01;2.50;99.90
16999;DHT22;10211;49.476;11.010;2023-01-24T06:28:28;2.50;99.90
16999;DHT22;10211;49.476;11.010;2023-01-24T06:31:02;2.60;99.90
16999;DHT22;10211;49.476;11.010;2023-01-24T06:33:36;2.50;99.90
16999;DHT22;10211;49.476;11.010;2023-01-24T06:36:23;2.50;99.90
16999;DHT22;10211;49.476;11.010;2023-01-24T06:38:52;2.60;99.90
16999;DHT22;10211;49.476;11.010;2023-01-24T06:41:19;2.50;99.90
16999;DHT22;10211;49.476;11.010;2023-01-24T06:43:46;2.60;99.90
16999;DHT22;10211;49.476;11.010;2023-01-24T06:46:13;2.60;99.90
16999;DHT22;10211;49.476;11.010;2023-01-24T06:48:42;2.60;99.90
16999;DHT22;10211;49.476;11.010;2023-01-24T06:51:10;2.60;99.90
16999;DHT22;10211;49.476;11.010;2023-01-24T06:53:39;2.60;99.90
16999;DHT22;10211;49.476;11.010;2023-01-24T06:56:07;2.60;99.90
16999;DHT22;10211;49.476;11.010;2023-01-24T06:58:34;2.60;99.90
16999;DHT22;10211;49.476;11.010;2023-01-24T07:01:00;2.50;99.90
16999;DHT22;10211;49.476;11.010;2023-01-24T07:03:27;2.60;99.90
16999;DHT22;10211;49.476;11.010;2023-01-24T07:05:54;2.50;99.90
16999;DHT22;10211;49.476;11.010;2023-01-24T07:08:20;2.60;99.90
16999;DHT22;10211;49.476;11.010;2023-01-24T07:10:49;2.50;99.90
16999;DHT22;10211;49.476;11.010;2023-01-24T07:13:16;2.60;99.90
16999;DHT22;10211;49.476;11.010;2023-01-24T07:15:42;2.60;99.90
16999;DHT22;10211;49.476;11.010;2023-01-24T07:18:11;2.70;99.90
16999;DHT22;10211;49.476;11.010;2023-01-24T07:20:39;2.70;99.90
16999;DHT22;10211;49.476;11.010;2023-01-24T07:23:16;2.80;99.90
16999;DHT22;10211;49.476;11.010;2023-01-24T07:25:44;2.80;99.90
16999;DHT22;10211;49.476;11.010;2023-01-24T07:28:13;2.80;99.90
16999;DHT22;10211;49.476;11.010;2023-01-24T07:30:40;2.70;99.90
16999;DHT22;10211;49.476;11.010;2023-01-24T07:33:07;2.70;99.90
16999;DHT22;10211;49.476;11.010;2023-01-24T07:35:33;2.80;99.90
16999;DHT22;10211;49.476;11.010;2023-01-24T07:38:00;2.70;99.90
16999;DHT22;10211;49.476;11.010;2023-01-24T07:40:27;2.80;99.90
16999;DHT22;10211;49.476;11.010;2023-01-24T07:42:53;2.80;99.90
16999;DHT22;10211;49.476;11.010;2023-01-24T07:45:21;2.80;99.90
16999;DHT22;10211;49.476;11.010;2023-01-24T07:47:48;2.90;99.90
16999;DHT22;10211;49.476;11.010;2023-01-24T07:50:15;2.90;99.90
16999;DHT22;10211;49.476;11.010;2023-01-24T07:52:42;2.80;99.90
16999;DHT22;10211;49.476;11.010;2023-01-24T07:55:09;2.80;99.90
16999;DHT22;10211;49.476;11.010;2023-01-24T07:57:36;2.90;99.90
16999;DHT22;10211;49.476;11.010;2023-01-24T08:00:03;2.90;99.90
16999;DHT22;10211;49.476;11.010;2023-01-24T08:02:32;2.90;99.90
16999;DHT22;10211;49.476;11.010;2023-01-24T08:04:58;2.90;99.90
16999;DHT22;10211;49.476;11.010;2023-01-24T08:07:25;2.90;99.90
16999;DHT22;10211;49.476;11.010;2023-01-24T08:09:52;3.00;99.90
16999;DHT22;10211;49.476;11.010;2023-01-24T08:12:19;3.00;99.90
16999;DHT22;10211;49.476;11.010;2023-01-24T08:14:46;3.00;99.90
16999;DHT22;10211;49.476;11.010;2023-01-24T08:17:13;3.00;99.90
16999;DHT22;10211;49.476;11.010;2023-01-24T08:19:41;3.00;99.90
16999;DHT22;10211;49.476;11.010;2023-01-24T08:22:08;3.10;99.90
16999;DHT22;10211;49.476;11.010;2023-01-24T08:24:34;3.00;99.90
16999;DHT22;10211;49.476;11.010;2023-01-24T08:27:02;3.00;99.90
16999;DHT22;10211;49.476;11.010;2023-01-24T08:29:31;3.10;99.90
16999;DHT22;10211;49.476;11.010;2023-01-24T08:31:58;3.10;99.90
16999;DHT22;10211;49.476;11.010;2023-01-24T08:34:25;3.10;99.90
16999;DHT22;10211;49.476;11.010;2023-01-24T08:36:53;3.20;99.90
16999;DHT22;10211;49.476;11.010;2023-01-24T08:39:19;3.20;99.90
16999;DHT22;10211;49.476;11.010;2023-01-24T08:41:46;3.20;99.90
16999;DHT22;10211;49.476;11.010;2023-01-24T08:44:13;3.20;99.90
16999;DHT22;10211;49.476;11.010;2023-01-24T08:46:41;3.30;99.90
16999;DHT22;10211;49.476;11.010;2023-01-24T08:49:09;3.30;99.90
16999;DHT22;10211;49.476;11.010;2023-01-24T08:51:36;3.30;99.90
16999;DHT22;10211;49.476;11.010;2023-01-24T08:54:05;3.30;99.90
16999;DHT22;10211;49.476;11.010;2023-01-24T08:56:33;3.30;99.90
16999;DHT22;10211;49.476;11.010;2023-01-24T08:59:00;3.40;99.90
16999;DHT22;10211;49.476;11.010;2023-01-24T09:01:27;3.40;99.90
16999;DHT22;10211;49.476;11.010;2023-01-24T09:03:53;3.40;99.90
16999;DHT22;10211;49.476;11.010;2023-01-24T09:06:22;3.30;99.90
16999;DHT22;10211;49.476;11.010;2023-01-24T09:08:51;3.40;99.90
16999;DHT22;10211;49.476;11.010;2023-01-24T09:11:21;3.40;99.90
16999;DHT22;10211;49.476;11.010;2023-01-24T09:13:47;3.40;99.90
16999;DHT22;10211;49.476;11.010;2023-01-24T09:16:16;3.40;99.90
16999;DHT22;10211;49.476;11.010;2023-01-24T09:18:43;3.40;99.90
16999;DHT22;10211;49.476;11.010;2023-01-24T09:21:09;3.50;99.90
16999;DHT22;10211;49.476;11.010;2023-01-24T09:23:36;3.50;99.90
16999;DHT22;10211;49.476;11.010;2023-01-24T09:26:03;3.50;99.90
16999;DHT22;10211;49.476;11.010;2023-01-24T09:28:31;3.60;99.90
16999;DHT22;10211;49.476;11.010;2023-01-24T09:30:59;3.70;99.90
16999;DHT22;10211;49.476;11.010;2023-01-24T09:33:26;3.60;99.90
16999;DHT22;10211;49.476;11.010;2023-01-24T09:35:55;3.60;99.90
16999;DHT22;10211;49.476;11.010;2023-01-24T09:38:23;3.50;99.90
16999;DHT22;10211;49.476;11.010;2023-01-24T09:40:56;3.60;99.90
16999;DHT22;10211;49.476;11.010;2023-01-24T09:43:38;3.70;99.90
16999;DHT22;10211;49.476;11.010;2023-01-24T09:46:17;3.80;99.90
16999;DHT22;10211;49.476;11.010;2023-01-24T09:48:47;3.70;99.90
16999;DHT22;10211;49.476;11.010;2023-01-24T09:51:17;3.80;99.90
16999;DHT22;10211;49.476;11.010;2023-01-24T09:53:49;3.80;99.90
16999;DHT22;10211;49.476;11.010;2023-01-24T09:56:21;3.70;99.90
16999;DHT22;10211;49.476;11.010;2023-01-24T09:59:00;3.80;99.90
16999;DHT22;10211;49.476;11.010;2023-01-24T10:01:36;3.90;99.90
16999;DHT22;10211;49.476;11.010;2023-01-24T10:04:04;3.80;99.90
16999;DHT22;10211;49.476;11.010;2023-01-24T10:06:32;3.80;99.90
16999;DHT22;10211;49.476;11.010;2023-01-24T10:09:05;4.00;99.90
16999;DHT22;10211;49.476;11.010;2023-01-24T10:11:42;3.90;99.90
16999;DHT22;10211;49.476;11.010;2023-01-24T10:14:28;4.00;99.90
16999;DHT22;10211;49.476;11.010;2023-01-24T10:20:25;3.90;99.90
16999;DHT22;10211;49.476;11.010;2023-01-24T10:23:02;4.10;99.90
16999;DHT22;10211;49.476;11.010;2023-01-24T10:25:36;4.20;99.90
16999;DHT22;10211;49.476;11.010;2023-01-24T10:28:04;4.10;99.90
16999;DHT22;10211;49.476;11.010;2023-01-24T10:30:41;4.00;99.90
16999;DHT22;10211;49.476;11.010;2023-01-24T10:33:14;4.00;99.90
16999;DHT22;10211;49.476;11.010;2023-01-24T10:35:51;4.10;99.90
16999;DHT22;10211;49.476;11.010;2023-01-24T10:38:20;4.10;99.90
16999;DHT22;10211;49.476;11.010;2023-01-24T10:40:52;4.10;99.90
16999;DHT22;10211;49.476;11.010;2023-01-24T10:43:22;3.90;99.90
16999;DHT22;10211;49.476;11.010;2023-01-24T10:45:58;3.90;99.90
16999;DHT22;10211;49.476;11.010;2023-01-24T10:48:36;3.90;99.90
16999;DHT22;10211;49.476;11.010;2023-01-24T10:51:12;4.00;99.90
16999;DHT22;10211;49.476;11.010;2023-01-24T10:53:38;4.00;99.90
16999;DHT22;10211;49.476;11.010;2023-01-24T10:56:06;4.10;99.90
16999;DHT22;10211;49.476;11.010;2023-01-24T10:58:35;4.30;99.90
16999;DHT22;10211;49.476;11.010;2023-01-24T11:01:07;4.40;99.90
16999;DHT22;10211;49.476;11.010;2023-01-24T11:03:39;4.30;99.90
16999;DHT22;10211;49.476;11.010;2023-01-24T11:06:22;4.30;99.90
16999;DHT22;10211;49.476;11.010;2023-01-24T11:08:53;4.20;99.90
16999;DHT22;10211;49.476;11.010;2023-01-24T11:11:23;4.30;99.90
16999;DHT22;10211;49.476;11.010;2023-01-24T11:13:54;4.40;99.90
16999;DHT22;10211;49.476;11.010;2023-01-24T11:16:26;4.30;99.90
16999;DHT22;10211;49.476;11.010;2023-01-24T11:18:57;4.30;99.90
16999;DHT22;10211;49.476;11.010;2023-01-24T11:21:27;4.40;99.90
16999;DHT22;10211;49.476;11.010;2023-01-24T11:24:11;4.40;99.90
16999;DHT22;10211;49.476;11.010;2023-01-24T11:26:56;4.50;99.90
16999;DHT22;10211;49.476;11.010;2023-01-24T11:29:23;4.40;99.90
16999;DHT22;10211;49.476;11.010;2023-01-24T11:31:53;4.40;99.90
16999;DHT22;10211;49.476;11.010;2023-01-24T11:34:39;4.50;99.90
16999;DHT22;10211;49.476;11.010;2023-01-24T11:37:33;4.50;99.90
16999;DHT22;10211;49.476;11.010;2023-01-24T11:40:14;4.50;99.90
16999;DHT22;10211;49.476;11.010;2023-01-24T11:42:50;4.60;99.90
16999;DHT22;10211;49.476;11.010;2023-01-24T11:45:32;4.60;99.90
16999;DHT22;10211;49.476;11.010;2023-01-24T11:48:12;4.60;99.90
16999;DHT22;10211;49.476;11.010;2023-01-24T11:50:49;4.50;99.90
16999;DHT22;10211;49.476;11.010;2023-01-24T11:53:45;4.70;99.90
16999;DHT22;10211;49.476;11.010;2023-01-24T11:56:22;4.70;99.90
16999;DHT22;10211;49.476;11.010;2023-01-24T11:59:11;4.60;99.90
16999;DHT22;10211;49.476;11.010;2023-01-24T12:01:49;4.70;99.90
16999;DHT22;10211;49.476;11.010;2023-01-24T12:04:41;4.50;99.90
16999;DHT22;10211;49.476;11.010;2023-01-24T12:07:15;4.50;99.90
16999;DHT22;10211;49.476;11.010;2023-01-24T12:09:49;4.50;99.90
16999;DHT22;10211;49.476;11.010;2023-01-24T12:12:23;4.50;99.90
16999;DHT22;10211;49.476;11.010;2023-01-24T12:15:06;4.60;99.90
16999;DHT22;10211;49.476;11.010;2023-01-24T12:17:47;4.60;99.90
16999;DHT22;10211;49.476;11.010;2023-01-24T12:20:37;4.60;99.90
16999;DHT22;10211;49.476;11.010;2023-01-24T12:23:13;4.60;99.90
16999;DHT22;10211;49.476;11.010;2023-01-24T12:25:45;4.50;99.90
16999;DHT22;10211;49.476;11.010;2023-01-24T12:28:16;4.50;99.90
16999;DHT22;10211;49.476;11.010;2023-01-24T12:30:49;4.50;99.90
16999;DHT22;10211;49.476;11.010;2023-01-24T12:33:22;4.40;99.90
16999;DHT22;10211;49.476;11.010;2023-01-24T12:35:55;4.40;99.90
16999;DHT22;10211;49.476;11.010;2023-01-24T12:38:28;4.30;99.90
16999;DHT22;10211;49.476;11.010;2023-01-24T12:41:02;4.40;99.90
16999;DHT22;10211;49.476;11.010;2023-01-24T12:43:44;4.30;99.90
16999;DHT22;10211;49.476;11.010;2023-01-24T12:46:16;4.30;99.90
16999;DHT22;10211;49.476;11.010;2023-01-24T12:48:48;4.30;99.90
16999;DHT22;10211;49.476;11.010;2023-01-24T12:51:23;4.40;99.90
16999;DHT22;10211;49.476;11.010;2023-01-24T12:54:00;4.40;99.90
16999;DHT22;10211;49.476;11.010;2023-01-24T12:56:33;4.40;99.90
16999;DHT22;10211;49.476;11.010;2023-01-24T12:59:02;4.40;99.90
16999;DHT22;10211;49.476;11.010;2023-01-24T13:01:54;4.40;99.90
16999;DHT22;10211;49.476;11.010;2023-01-24T13:04:37;4.30;99.90
16999;DHT22;10211;49.476;11.010;2023-01-24T13:07:13;4.40;99.90
16999;DHT22;10211;49.476;11.010;2023-01-24T13:09:49;4.30;99.90
16999;DHT22;10211;49.476;11.010;2023-01-24T13:12:22;4.30;99.90
16999;DHT22;10211;49.476;11.010;2023-01-24T13:14:52;4.30;99.90
16999;DHT22;10211;49.476;11.010;2023-01-24T13:20:16;4.30;99.90
16999;DHT22;10211;49.476;11.010;2023-01-24T13:22:59;4.30;99.90
16999;DHT22;10211;49.476;11.010;2023-01-24T13:25:44;4.20;99.90
16999;DHT22;10211;49.476;11.010;2023-01-24T13:28:19;4.10;99.90
16999;DHT22;10211;49.476;11.010;2023-01-24T13:30:55;4.10;99.90
16999;DHT22;10211;49.476;11.010;2023-01-24T13:33:29;4.10;99.90
16999;DHT22;10211;49.476;11.010;2023-01-24T13:35:56;4.10;99.90
16999;DHT22;10211;49.476;11.010;2023-01-24T13:38:26;4.10;99.90
16999;DHT22;10211;49.476;11.010;2023-01-24T13:40:59;4.00;99.90
16999;DHT22;10211;49.476;11.010;2023-01-24T13:43:56;4.00;99.90
16999;DHT22;10211;49.476;11.010;2023-01-24T13:47:00;4.00;99.90
16999;DHT22;10211;49.476;11.010;2023-01-24T13:49:44;4.00;99.90
16999;DHT22;10211;49.476;11.010;2023-01-24T13:52:36;4.00;99.90
16999;DHT22;10211;49.476;11.010;2023-01-24T13:55:49;4.00;99.90
16999;DHT22;10211;49.476;11.010;2023-01-24T13:58:27;4.00;99.90
16999;DHT22;10211;49.476;11.010;2023-01-24T14:00:56;3.90;99.90
16999;DHT22;10211;49.476;11.010;2023-01-24T14:03:26;4.00;99.90
16999;DHT22;10211;49.476;11.010;2023-01-24T14:05:56;4.00;99.90
16999;DHT22;10211;49.476;11.010;2023-01-24T14:08:47;3.90;99.90
16999;DHT22;10211;49.476;11.010;2023-01-24T14:11:18;3.90;99.90
16999;DHT22;10211;49.476;11.010;2023-01-24T14:13:55;3.90;99.90
16999;DHT22;10211;49.476;11.010;2023-01-24T14:19:36;3.80;99.90
16999;DHT22;10211;49.476;11.010;2023-01-24T14:22:20;3.80;99.90
16999;DHT22;10211;49.476;11.010;2023-01-24T14:24:55;3.70;99.90
16999;DHT22;10211;49.476;11.010;2023-01-24T14:27:27;3.70;99.90
16999;DHT22;10211;49.476;11.010;2023-01-24T14:30:15;3.60;99.90
16999;DHT22;10211;49.476;11.010;2023-01-24T14:32:47;3.60;99.90
16999;DHT22;10211;49.476;11.010;2023-01-24T14:35:18;3.60;99.90
16999;DHT22;10211;49.476;11.010;2023-01-24T14:37:45;3.50;99.90
16999;DHT22;10211;49.476;11.010;2023-01-24T14:40:19;3.50;99.90
16999;DHT22;10211;49.476;11.010;2023-01-24T14:42:50;3.50;99.90
16999;DHT22;10211;49.476;11.010;2023-01-24T14:45:21;3.50;99.90
16999;DHT22;10211;49.476;11.010;2023-01-24T14:47:50;3.50;99.90
16999;DHT22;10211;49.476;11.010;2023-01-24T14:50:23;3.50;99.90
16999;DHT22;10211;49.476;11.010;2023-01-24T14:52:50;3.60;99.90
16999;DHT22;10211;49.476;11.010;2023-01-24T14:55:38;3.60;99.90
16999;DHT22;10211;49.476;11.010;2023-01-24T14:58:18;3.70;99.90
16999;DHT22;10211;49.476;11.010;2023-01-24T15:00:46;3.70;99.90
16999;DHT22;10211;49.476;11.010;2023-01-24T15:03:16;3.70;99.90
16999;DHT22;10211;49.476;11.010;2023-01-24T15:05:56;3.60;99.90
16999;DHT22;10211;49.476;11.010;2023-01-24T15:08:24;3.70;99.90
16999;DHT22;10211;49.476;11.010;2023-01-24T15:11:00;3.70;99.90
16999;DHT22;10211;49.476;11.010;2023-01-24T15:13:34;3.80;99.90
16999;DHT22;10211;49.476;11.010;2023-01-24T15:16:03;3.60;99.90
16999;DHT22;10211;49.476;11.010;2023-01-24T15:18:38;3.60;99.90
16999;DHT22;10211;49.476;11.010;2023-01-24T15:21:12;3.60;99.90
16999;DHT22;10211;49.476;11.010;2023-01-24T15:23:41;3.60;99.90
16999;DHT22;10211;49.476;11.010;2023-01-24T15:26:34;3.50;99.90
16999;DHT22;10211;49.476;11.010;2023-01-24T15:29:35;3.50;99.90
16999;DHT22;10211;49.476;11.010;2023-01-24T15:32:03;3.40;99.90
16999;DHT22;10211;49.476;11.010;2023-01-24T15:34:44;3.40;99.90
16999;DHT22;10211;49.476;11.010;2023-01-24T15:37:13;3.40;99.90
16999;DHT22;10211;49.476;11.010;2023-01-24T15:39:40;3.30;99.90
16999;DHT22;10211;49.476;11.010;2023-01-24T15:42:14;3.30;99.90
16999;DHT22;10211;49.476;11.010;2023-01-24T15:45:00;3.40;99.90
16999;DHT22;10211;49.476;11.010;2023-01-24T15:47:27;3.40;99.90
16999;DHT22;10211;49.476;11.010;2023-01-24T15:50:16;3.50;99.90
16999;DHT22;10211;49.476;11.010;2023-01-24T15:53:21;3.40;99.90
16999;DHT22;10211;49.476;11.010;2023-01-24T15:55:49;3.40;99.90
16999;DHT22;10211;49.476;11.010;2023-01-24T15:58:16;3.40;99.90
16999;DHT22;10211;49.476;11.010;2023-01-24T16:00:51;3.20;99.90
16999;DHT22;10211;49.476;11.010;2023-01-24T16:03:18;3.20;99.90
16999;DHT22;10211;49.476;11.010;2023-01-24T16:05:45;3.20;99.90
16999;DHT22;10211;49.476;11.010;2023-01-24T16:08:12;3.20;99.90